KSGU/SGU METAR and TAF weather

Enter ICAO airport designator
Station Type Date Time Source
KSGU METAR 2020/09/27 02:56 UTC NOAA

KSGU 270256Z AUTO 25005KT 10SM CLR 28/M05 A2990 RMK AO2 SLP094 T02831050 53006


Station Type Date Time Source
KSGU Decoded METAR 2020/09/27 02:56 UTC NOAA

St George, St George Municipal Airport, UT, United States (KSGU) 37-05N 113-36W
Sep 26, 2020 - 10:56 PM EDT / 2020.09.27 0256 UTC
Wind: from the WSW (250 degrees) at 6 MPH (5 KT):0
Visibility: 10 mile(s):0
Sky conditions: clear
Temperature: 82.9 F (28.3 C)
Dew Point: 23.0 F (-5.0 C)
Relative Humidity: 10%
Pressure (altimeter): 29.9 in. Hg (1012 hPa)
Pressure tendency: 0.02 inches (0.6 hPa) higher than three hours ago
ob: KSGU 270256Z AUTO 25005KT 10SM CLR 28/M05 A2990 RMK AO2 SLP094 T02831050 53006
cycle: 3

Station Type Date Time Source
KSGU TAF 2020/09/26 18:42 UTC NOAA

TAF KSGU 261741Z 2618/2718 VRB05KT P6SM SCT200
FM262000 25007KT P6SM SCT200
FM262100 25010G18KT P6SM SCT200
FM270200 25006KT P6SM SCT200
FM270500 15005KT P6SM FEW200

Example: see airport list